createdAt,value
2022-10-06T00:00:02.891Z,2.40
2022-10-06T00:02:29.440Z,2.63
2022-10-06T00:04:55.980Z,2.47
2022-10-06T00:07:22.490Z,2.42
2022-10-06T00:09:50.340Z,2.53
2022-10-06T00:12:16.815Z,2.47
2022-10-06T00:14:43.431Z,2.60
2022-10-06T00:17:09.904Z,2.57
2022-10-06T00:19:36.429Z,2.60
2022-10-06T00:22:02.937Z,2.47
2022-10-06T00:24:29.470Z,2.40
2022-10-06T00:26:57.419Z,2.80
2022-10-06T00:29:23.896Z,2.30
2022-10-06T00:31:50.415Z,2.65
2022-10-06T00:34:16.892Z,2.63
2022-10-06T00:36:43.396Z,2.72
2022-10-06T00:39:10.078Z,2.60
2022-10-06T00:41:36.572Z,2.87
2022-10-06T00:44:04.423Z,2.42
2022-10-06T00:46:36.530Z,2.55
2022-10-06T00:49:16.465Z,2.80
2022-10-06T00:51:48.054Z,2.20
2022-10-06T00:54:15.288Z,2.47
2022-10-06T00:56:42.140Z,2.25
2022-10-06T00:59:15.784Z,2.42
2022-10-06T01:01:49.384Z,2.60
2022-10-06T01:04:18.006Z,2.40
2022-10-06T01:06:48.145Z,2.60
2022-10-06T01:09:16.532Z,2.60
2022-10-06T01:11:44.588Z,2.55
2022-10-06T01:14:11.494Z,2.60
2022-10-06T01:16:42.842Z,3.10
2022-10-06T01:19:19.240Z,2.47
2022-10-06T01:21:49.396Z,2.60
2022-10-06T01:24:18.838Z,2.60
2022-10-06T01:26:49.495Z,2.65
2022-10-06T01:29:16.329Z,2.67
2022-10-06T01:31:43.300Z,2.53
2022-10-06T01:34:10.275Z,2.30
2022-10-06T01:36:36.777Z,2.38
2022-10-06T01:39:03.440Z,2.83
2022-10-06T01:41:31.307Z,2.15
2022-10-06T01:43:57.765Z,1.70
2022-10-06T01:46:24.425Z,1.80
2022-10-06T01:48:50.971Z,1.35
2022-10-06T01:51:17.834Z,1.10
2022-10-06T01:53:44.349Z,0.90
2022-10-06T01:56:11.166Z,0.90
2022-10-06T01:58:39.177Z,0.73
2022-10-06T02:01:06.360Z,0.90
2022-10-06T02:03:34.248Z,0.70
2022-10-06T02:06:00.881Z,0.57
2022-10-06T02:08:28.037Z,0.60
2022-10-06T02:10:54.787Z,0.40
2022-10-06T02:13:24.666Z,0.50
2022-10-06T02:15:55.590Z,0.40
2022-10-06T02:18:22.194Z,0.60
2022-10-06T02:20:48.844Z,0.40
2022-10-06T02:23:15.326Z,0.50
2022-10-06T02:25:41.972Z,0.60
2022-10-06T02:28:08.510Z,0.40
2022-10-06T02:30:35.485Z,0.60
2022-10-06T02:33:03.472Z,0.43
2022-10-06T02:35:29.983Z,0.50
2022-10-06T02:37:56.467Z,0.65
2022-10-06T02:40:23.063Z,0.60
2022-10-06T02:42:50.097Z,0.68
2022-10-06T02:45:16.952Z,0.50
2022-10-06T02:47:43.424Z,0.50
2022-10-06T02:50:11.283Z,0.60
2022-10-06T02:52:38.464Z,0.40
2022-10-06T02:55:06.375Z,0.68
2022-10-06T02:57:32.881Z,0.80
2022-10-06T02:59:59.520Z,0.77
2022-10-06T03:02:26.281Z,0.80
2022-10-06T03:04:52.876Z,0.70
2022-10-06T03:07:20.727Z,0.90
2022-10-06T03:09:47.207Z,0.70
2022-10-06T03:12:13.722Z,0.73
2022-10-06T03:14:40.270Z,0.82
2022-10-06T03:17:06.896Z,0.82
2022-10-06T03:19:33.554Z,0.70
2022-10-06T03:22:00.188Z,0.90
2022-10-06T03:24:28.074Z,0.57
2022-10-06T03:26:54.583Z,0.80
2022-10-06T03:29:21.123Z,0.60
2022-10-06T03:31:47.769Z,0.80
2022-10-06T03:34:14.299Z,0.80
2022-10-06T03:36:41.586Z,1.00
2022-10-06T03:39:08.336Z,0.63
2022-10-06T03:41:37.702Z,0.80
2022-10-06T03:44:04.998Z,0.60
2022-10-06T03:46:34.433Z,0.70
2022-10-06T03:49:01.186Z,0.70
2022-10-06T03:51:29.661Z,1.00
2022-10-06T03:53:56.746Z,0.60
2022-10-06T03:56:25.249Z,0.90
2022-10-06T03:58:54.635Z,1.05
2022-10-06T04:01:26.106Z,0.93
2022-10-06T04:03:54.183Z,0.90
2022-10-06T04:06:21.580Z,1.00
2022-10-06T04:08:49.801Z,0.95
2022-10-06T04:11:18.683Z,1.10
2022-10-06T04:13:45.191Z,0.90
2022-10-06T04:16:15.466Z,0.82
2022-10-06T04:18:43.378Z,1.17
2022-10-06T04:21:10.493Z,1.00
2022-10-06T04:23:37.138Z,1.08
2022-10-06T04:26:05.965Z,1.00
2022-10-06T04:28:33.585Z,0.95
2022-10-06T04:31:01.417Z,1.20
2022-10-06T04:33:29.606Z,1.20
2022-10-06T04:35:57.116Z,1.02
2022-10-06T04:38:24.016Z,1.13
2022-10-06T04:40:50.544Z,0.90
2022-10-06T04:43:17.239Z,1.17
2022-10-06T04:45:43.823Z,1.30
2022-10-06T04:48:10.370Z,1.23
2022-10-06T04:50:38.376Z,1.40
2022-10-06T04:53:04.883Z,1.30
2022-10-06T04:55:31.412Z,1.15
2022-10-06T04:57:57.901Z,1.25
2022-10-06T05:00:24.454Z,1.10
2022-10-06T05:02:52.592Z,1.30
2022-10-06T05:05:19.685Z,1.30
2022-10-06T05:07:47.625Z,1.75
2022-10-06T05:10:14.252Z,1.63
2022-10-06T05:12:40.788Z,1.67
2022-10-06T05:15:08.708Z,1.50
2022-10-06T05:17:35.220Z,1.30
2022-10-06T05:20:01.879Z,1.50
2022-10-06T05:22:28.389Z,1.58
2022-10-06T05:24:56.283Z,1.40
2022-10-06T05:27:22.795Z,1.50
2022-10-06T05:29:49.322Z,1.58
2022-10-06T05:32:15.906Z,1.65
2022-10-06T05:34:42.419Z,1.67
2022-10-06T05:37:08.916Z,1.70
2022-10-06T05:39:35.438Z,1.77
2022-10-06T05:42:03.609Z,1.80
2022-10-06T05:44:30.097Z,2.20
2022-10-06T05:46:56.611Z,2.15
2022-10-06T05:49:23.225Z,2.10
2022-10-06T05:51:49.770Z,2.30
2022-10-06T05:54:16.320Z,2.47
2022-10-06T05:56:42.855Z,2.17
2022-10-06T05:59:10.973Z,1.92
2022-10-06T06:01:39.522Z,2.53
2022-10-06T06:04:07.776Z,2.37
2022-10-06T06:06:37.757Z,2.33
2022-10-06T06:09:06.384Z,2.17
2022-10-06T06:11:34.563Z,2.38
2022-10-06T06:14:04.861Z,2.50
2022-10-06T06:16:33.468Z,2.00
2022-10-06T06:19:00.858Z,2.13
2022-10-06T06:21:28.328Z,2.15
2022-10-06T06:23:55.042Z,2.03
2022-10-06T06:26:23.740Z,2.40
2022-10-06T06:28:50.941Z,2.43
2022-10-06T06:31:20.307Z,2.30
2022-10-06T06:33:51.290Z,2.30
2022-10-06T06:36:20.712Z,2.40
2022-10-06T06:38:48.938Z,2.60
2022-10-06T06:41:17.002Z,2.20
2022-10-06T06:43:43.898Z,2.50
2022-10-06T06:46:10.773Z,2.38
2022-10-06T06:48:37.543Z,2.78
2022-10-06T06:51:05.741Z,2.67
2022-10-06T06:53:32.473Z,2.47
2022-10-06T06:55:59.261Z,2.40
2022-10-06T06:58:26.304Z,2.50
2022-10-06T07:00:53.354Z,2.60
2022-10-06T07:03:38.550Z,2.63
2022-10-06T07:06:12.138Z,2.40
2022-10-06T07:08:40.500Z,3.10
2022-10-06T07:11:12.084Z,3.13
2022-10-06T07:13:38.899Z,2.60
2022-10-06T07:16:05.977Z,2.80
2022-10-06T07:18:32.939Z,2.57
2022-10-06T07:20:59.721Z,2.60
2022-10-06T07:23:27.581Z,2.78
2022-10-06T07:25:54.103Z,2.40
2022-10-06T07:28:20.646Z,2.80
2022-10-06T07:30:47.223Z,2.57
2022-10-06T07:33:14.516Z,2.58
2022-10-06T07:35:41.071Z,2.70
2022-10-06T07:38:07.549Z,2.95
2022-10-06T07:40:35.808Z,2.47
2022-10-06T07:43:02.339Z,2.43
2022-10-06T07:45:29.769Z,2.45
2022-10-06T07:47:57.987Z,2.45
2022-10-06T07:50:24.486Z,2.63
2022-10-06T07:52:51.012Z,2.70
2022-10-06T07:55:17.488Z,2.50
2022-10-06T07:57:46.405Z,2.50
2022-10-06T08:00:13.563Z,2.53
2022-10-06T08:02:40.254Z,2.72
2022-10-06T08:05:07.763Z,2.60
2022-10-06T08:07:34.765Z,2.40
2022-10-06T08:10:01.450Z,2.40
2022-10-06T08:12:28.050Z,2.42
2022-10-06T08:14:56.396Z,2.38
2022-10-06T08:17:23.376Z,2.05
2022-10-06T08:19:49.867Z,2.17
2022-10-06T08:22:16.424Z,2.67
2022-10-06T08:25:04.639Z,2.30
2022-10-06T08:27:29.699Z,2.65
2022-10-06T08:29:57.856Z,1.98
2022-10-06T08:32:24.655Z,2.23
2022-10-06T08:34:51.538Z,2.03
2022-10-06T08:37:20.497Z,2.00
2022-10-06T08:39:47.178Z,1.90
2022-10-06T08:42:18.064Z,1.85
2022-10-06T08:44:49.298Z,1.80
2022-10-06T08:47:19.678Z,1.80
2022-10-06T08:49:47.811Z,2.47
2022-10-06T08:52:40.952Z,2.30
2022-10-06T08:55:20.930Z,2.03
2022-10-06T08:57:58.334Z,2.00
2022-10-06T09:00:24.943Z,2.15
2022-10-06T09:02:55.694Z,2.53
2022-10-06T09:05:22.496Z,2.45
2022-10-06T09:07:58.877Z,2.30
2022-10-06T09:10:41.510Z,2.00
2022-10-06T09:13:17.305Z,1.80
2022-10-06T09:15:50.488Z,2.28
2022-10-06T09:18:23.037Z,1.75
2022-10-06T09:20:53.683Z,2.20
2022-10-06T09:23:20.484Z,2.20
2022-10-06T09:25:47.313Z,2.05
2022-10-06T09:28:15.170Z,1.90
2022-10-06T09:30:42.268Z,1.90
2022-10-06T09:33:17.878Z,1.88
2022-10-06T09:36:04.949Z,2.10
2022-10-06T09:38:46.286Z,1.90
2022-10-06T09:41:13.357Z,1.90
2022-10-06T09:43:41.355Z,2.08
2022-10-06T09:46:26.589Z,1.67
2022-10-06T09:49:06.531Z,1.87
2022-10-06T09:51:34.410Z,1.95
2022-10-06T09:54:09.268Z,1.60
2022-10-06T09:56:40.268Z,1.70
2022-10-06T09:59:20.104Z,2.00
2022-10-06T10:01:51.489Z,2.10
2022-10-06T10:04:23.307Z,1.50
2022-10-06T10:06:51.509Z,1.40
2022-10-06T10:09:26.109Z,1.23
2022-10-06T10:12:13.702Z,1.65
2022-10-06T10:14:40.455Z,1.17
2022-10-06T10:17:12.657Z,1.50
2022-10-06T10:19:39.406Z,1.73
2022-10-06T10:22:18.708Z,1.77
2022-10-06T10:24:57.702Z,1.38
2022-10-06T10:27:31.738Z,1.67
2022-10-06T10:30:05.313Z,1.90
2022-10-06T10:32:44.911Z,1.85
2022-10-06T10:35:23.032Z,1.80
2022-10-06T10:37:55.713Z,2.00
2022-10-06T10:40:34.388Z,1.70
2022-10-06T10:43:10.977Z,1.65
2022-10-06T10:45:42.685Z,2.47
2022-10-06T10:48:15.349Z,1.75
2022-10-06T10:50:58.895Z,1.83
2022-10-06T10:53:36.551Z,1.80
2022-10-06T10:56:08.810Z,1.95
2022-10-06T10:58:37.346Z,2.10
2022-10-06T11:01:14.697Z,2.03
2022-10-06T11:03:41.472Z,2.10
2022-10-06T11:06:22.587Z,1.90
2022-10-06T11:08:57.895Z,1.77
2022-10-06T11:11:41.659Z,1.95
2022-10-06T11:14:18.580Z,2.13
2022-10-06T11:16:51.234Z,2.03
2022-10-06T11:19:29.907Z,1.77
2022-10-06T11:22:02.942Z,1.80
2022-10-06T11:24:44.994Z,1.75
2022-10-06T11:27:25.287Z,1.90
2022-10-06T11:30:02.252Z,1.73
2022-10-06T11:32:41.888Z,2.00
2022-10-06T11:35:18.920Z,1.80
2022-10-06T11:37:50.500Z,1.95
2022-10-06T11:40:40.058Z,1.95
2022-10-06T11:43:14.836Z,1.77
2022-10-06T11:45:48.447Z,1.87
2022-10-06T11:48:24.944Z,1.90
2022-10-06T11:50:51.570Z,1.90
2022-10-06T11:53:37.282Z,1.58
2022-10-06T11:56:37.912Z,1.63
2022-10-06T11:59:24.671Z,1.70
2022-10-06T12:01:53.570Z,1.80
2022-10-06T12:04:24.322Z,1.73
2022-10-06T12:06:54.012Z,1.80
2022-10-06T12:09:53.060Z,1.60
2022-10-06T12:12:43.946Z,1.67
2022-10-06T12:18:43.115Z,1.98
2022-10-06T12:21:19.997Z,1.77
2022-10-06T12:23:58.803Z,1.70
2022-10-06T12:26:39.772Z,2.00
2022-10-06T12:29:29.783Z,2.30
2022-10-06T12:32:04.738Z,2.22
2022-10-06T12:34:52.147Z,1.85
2022-10-06T12:37:44.344Z,1.80
2022-10-06T12:40:56.646Z,1.60
2022-10-06T12:43:34.282Z,1.42
2022-10-06T12:46:04.712Z,1.48
2022-10-06T12:48:39.735Z,1.60
2022-10-06T12:51:17.607Z,1.40
2022-10-06T12:53:52.025Z,1.67
2022-10-06T12:56:27.703Z,1.90
2022-10-06T12:58:54.741Z,1.70
2022-10-06T13:01:24.002Z,1.90
2022-10-06T13:03:52.165Z,1.50
2022-10-06T13:06:21.577Z,1.40
2022-10-06T13:09:04.101Z,1.77
2022-10-06T13:11:30.700Z,2.17
2022-10-06T13:14:06.672Z,1.80
2022-10-06T13:16:36.667Z,1.67
2022-10-06T13:19:03.278Z,1.70
2022-10-06T13:21:30.351Z,1.80
2022-10-06T13:23:57.283Z,1.58
2022-10-06T13:26:27.025Z,1.75
2022-10-06T13:28:54.931Z,1.67
2022-10-06T13:31:23.428Z,1.63
2022-10-06T13:33:55.679Z,1.30
2022-10-06T13:36:22.792Z,1.50
2022-10-06T13:38:49.945Z,1.40
2022-10-06T13:41:22.129Z,1.58
2022-10-06T13:43:51.411Z,1.50
2022-10-06T13:46:21.542Z,1.55
2022-10-06T13:48:54.933Z,1.77
2022-10-06T13:51:23.938Z,1.73
2022-10-06T13:53:51.229Z,1.60
2022-10-06T13:56:36.221Z,1.80
2022-10-06T13:59:28.740Z,1.35
2022-10-06T14:01:55.843Z,1.20
2022-10-06T14:04:23.883Z,1.63
2022-10-06T14:06:53.499Z,1.30
2022-10-06T14:09:24.280Z,1.33
2022-10-06T14:11:52.548Z,1.73
2022-10-06T14:14:19.521Z,1.58
2022-10-06T14:16:48.374Z,1.60
2022-10-06T14:19:34.741Z,1.30
2022-10-06T14:22:02.317Z,1.30
2022-10-06T14:24:29.319Z,1.58
2022-10-06T14:27:01.696Z,1.50
2022-10-06T14:29:28.225Z,1.10
2022-10-06T14:31:54.746Z,1.20
2022-10-06T14:34:21.914Z,1.70
2022-10-06T14:36:51.156Z,1.33
2022-10-06T14:39:17.985Z,1.00
2022-10-06T14:41:44.587Z,1.40
2022-10-06T14:44:12.192Z,1.23
2022-10-06T14:46:39.929Z,1.80
2022-10-06T14:49:07.169Z,1.58
2022-10-06T14:51:36.574Z,2.00
2022-10-06T14:54:06.101Z,1.50
2022-10-06T14:56:34.667Z,1.25
2022-10-06T14:59:04.242Z,1.30
2022-10-06T15:01:31.911Z,1.40
2022-10-06T15:04:00.000Z,1.27
2022-10-06T15:06:26.986Z,1.45
2022-10-06T15:08:56.288Z,1.30
2022-10-06T15:11:25.619Z,1.40
2022-10-06T15:13:52.200Z,1.08
2022-10-06T15:16:18.725Z,1.50
2022-10-06T15:18:45.245Z,1.27
2022-10-06T15:21:11.758Z,1.52
2022-10-06T15:23:38.928Z,1.00
2022-10-06T15:26:06.044Z,1.35
2022-10-06T15:28:33.883Z,1.48
2022-10-06T15:31:00.441Z,1.38
2022-10-06T15:33:27.675Z,1.13
2022-10-06T15:36:13.936Z,1.60
2022-10-06T15:38:40.470Z,1.70
2022-10-06T15:41:06.950Z,1.50
2022-10-06T15:43:34.889Z,1.45
2022-10-06T15:46:01.365Z,2.58
2022-10-06T15:48:27.867Z,3.60
2022-10-06T15:50:54.389Z,2.33
2022-10-06T15:53:20.905Z,1.23
2022-10-06T15:55:47.428Z,1.70
2022-10-06T15:58:14.028Z,5.03
2022-10-06T16:00:42.038Z,3.30
2022-10-06T16:03:08.660Z,3.00
2022-10-06T16:05:35.212Z,1.80
2022-10-06T16:08:01.696Z,3.08
2022-10-06T16:10:28.288Z,2.20
2022-10-06T16:12:54.781Z,2.30
2022-10-06T16:15:21.433Z,1.98
2022-10-06T16:17:49.277Z,3.15
2022-10-06T16:20:15.982Z,2.78
2022-10-06T16:22:42.574Z,2.25
2022-10-06T16:25:09.483Z,2.60
2022-10-06T16:27:35.962Z,2.17
2022-10-06T16:30:02.643Z,1.90
2022-10-06T16:32:29.131Z,1.98
2022-10-06T16:34:57.025Z,1.92
2022-10-06T16:37:23.532Z,1.83
2022-10-06T16:39:50.029Z,2.00
2022-10-06T16:42:16.652Z,1.90
2022-10-06T16:44:43.160Z,2.03
2022-10-06T16:47:09.904Z,2.78
2022-10-06T16:49:36.685Z,2.47
2022-10-06T16:52:04.599Z,3.80
2022-10-06T16:54:31.134Z,2.90
2022-10-06T16:56:57.769Z,2.70
2022-10-06T16:59:24.654Z,2.50
2022-10-06T17:01:51.200Z,2.40
2022-10-06T17:04:19.394Z,2.47
2022-10-06T17:06:47.516Z,2.58
2022-10-06T17:09:18.204Z,2.70
2022-10-06T17:11:46.898Z,2.10
2022-10-06T17:14:13.624Z,2.60
2022-10-06T17:16:42.803Z,2.60
2022-10-06T17:19:10.804Z,2.45
2022-10-06T17:21:47.493Z,2.30
2022-10-06T17:24:16.925Z,2.40
2022-10-06T17:26:44.635Z,2.47
2022-10-06T17:29:13.472Z,2.75
2022-10-06T17:31:41.834Z,2.70
2022-10-06T17:34:10.724Z,2.10
2022-10-06T17:36:38.301Z,2.78
2022-10-06T17:39:06.004Z,3.07
2022-10-06T17:41:36.031Z,2.50
2022-10-06T17:44:04.969Z,19.67
2022-10-06T17:46:33.946Z,12.98
2022-10-06T17:49:03.009Z,7.53
2022-10-06T17:51:29.516Z,6.63
2022-10-06T17:53:57.811Z,8.10
2022-10-06T17:56:25.609Z,9.10
2022-10-06T17:58:54.778Z,8.48
2022-10-06T18:01:23.311Z,7.13
2022-10-06T18:03:50.295Z,6.43
2022-10-06T18:06:17.758Z,5.75
2022-10-06T18:08:45.692Z,5.10
2022-10-06T18:11:14.175Z,3.60
2022-10-06T18:13:40.772Z,3.00
2022-10-06T18:16:14.812Z,2.50
2022-10-06T18:18:44.217Z,2.90
2022-10-06T18:21:10.936Z,2.60
2022-10-06T18:23:37.425Z,4.00
2022-10-06T18:26:04.093Z,6.95
2022-10-06T18:28:30.642Z,6.10
2022-10-06T18:30:57.205Z,5.10
2022-10-06T18:36:14.766Z,8.10
2022-10-06T18:38:43.448Z,8.25
2022-10-06T18:41:12.826Z,6.00
2022-10-06T18:43:39.464Z,5.88
2022-10-06T18:46:07.656Z,6.53
2022-10-06T18:48:37.278Z,5.50
2022-10-06T18:51:04.142Z,3.08
2022-10-06T18:53:30.651Z,3.07
2022-10-06T18:55:57.292Z,2.70
2022-10-06T18:58:23.785Z,2.80
2022-10-06T19:00:50.353Z,2.60
2022-10-06T19:03:16.840Z,3.05
2022-10-06T19:05:52.287Z,3.20
2022-10-06T19:08:18.784Z,3.92
2022-10-06T19:10:45.300Z,3.85
2022-10-06T19:13:11.810Z,3.63
2022-10-06T19:15:38.488Z,3.17
2022-10-06T19:18:05.312Z,3.10
2022-10-06T19:20:31.808Z,3.17
2022-10-06T19:22:59.671Z,2.67
2022-10-06T19:25:26.287Z,3.30
2022-10-06T19:27:52.849Z,2.72
2022-10-06T19:30:19.399Z,3.30
2022-10-06T19:32:45.888Z,3.17
2022-10-06T19:35:12.421Z,3.05
2022-10-06T19:37:39.304Z,3.50
2022-10-06T19:40:07.431Z,3.53
2022-10-06T19:42:33.940Z,3.73
2022-10-06T19:45:00.604Z,4.35
2022-10-06T19:47:27.884Z,4.60
2022-10-06T19:49:57.854Z,3.92
2022-10-06T19:52:25.597Z,4.28
2022-10-06T19:54:52.161Z,3.60
2022-10-06T19:57:20.146Z,4.55
2022-10-06T19:59:46.647Z,4.07
2022-10-06T20:02:13.436Z,3.35
2022-10-06T20:04:40.082Z,3.70
2022-10-06T20:07:07.720Z,3.67
2022-10-06T20:09:34.370Z,3.15
2022-10-06T20:12:01.375Z,3.80
2022-10-06T20:14:29.367Z,3.33
2022-10-06T20:16:56.546Z,3.38
2022-10-06T20:19:23.595Z,3.10
2022-10-06T20:21:50.392Z,2.53
2022-10-06T20:24:19.236Z,2.28
2022-10-06T20:26:46.640Z,1.98
2022-10-06T20:29:14.753Z,2.50
2022-10-06T20:31:44.845Z,2.20
2022-10-06T20:34:13.667Z,2.45
2022-10-06T20:36:40.424Z,2.60
2022-10-06T20:39:11.167Z,1.98
2022-10-06T20:41:38.588Z,2.35
2022-10-06T20:44:05.384Z,2.33
2022-10-06T20:46:34.426Z,2.05
2022-10-06T20:49:04.976Z,2.30
2022-10-06T20:51:32.661Z,2.70
2022-10-06T20:53:59.724Z,2.60
2022-10-06T20:56:26.276Z,2.90
2022-10-06T20:58:53.216Z,2.90
2022-10-06T21:01:21.645Z,3.58
2022-10-06T21:03:50.719Z,3.63
2022-10-06T21:06:18.920Z,3.40
2022-10-06T21:08:46.478Z,3.70
2022-10-06T21:11:14.188Z,3.85
2022-10-06T21:13:41.203Z,3.42
2022-10-06T21:16:07.872Z,3.03
2022-10-06T21:18:34.497Z,3.10
2022-10-06T21:21:02.283Z,2.90
2022-10-06T21:23:35.006Z,2.72
2022-10-06T21:26:01.696Z,2.60
2022-10-06T21:28:28.395Z,3.03
2022-10-06T21:31:00.524Z,2.88
2022-10-06T21:33:27.066Z,3.03
2022-10-06T21:36:00.294Z,2.85
2022-10-06T21:38:27.567Z,2.42
2022-10-06T21:40:56.064Z,2.75
2022-10-06T21:43:23.119Z,2.80
2022-10-06T21:46:00.829Z,2.50
2022-10-06T21:48:36.179Z,2.67
2022-10-06T21:51:02.652Z,2.13
2022-10-06T21:53:31.487Z,2.65
2022-10-06T21:55:59.307Z,2.97
2022-10-06T21:58:25.961Z,2.40
2022-10-06T22:00:57.302Z,2.53
2022-10-06T22:03:24.729Z,2.60
2022-10-06T22:05:51.230Z,2.50
2022-10-06T22:08:17.773Z,2.00
2022-10-06T22:10:44.288Z,2.07
2022-10-06T22:13:12.186Z,2.25
2022-10-06T22:15:38.848Z,2.50
2022-10-06T22:18:05.463Z,2.67
2022-10-06T22:20:31.958Z,2.42
2022-10-06T22:23:02.552Z,2.30
2022-10-06T22:25:31.163Z,2.08
2022-10-06T22:27:57.764Z,2.47
2022-10-06T22:30:25.706Z,2.10
2022-10-06T22:32:52.211Z,1.77
2022-10-06T22:35:18.686Z,2.17
2022-10-06T22:37:45.670Z,1.88
2022-10-06T22:40:12.690Z,2.10
2022-10-06T22:42:39.153Z,2.17
2022-10-06T22:45:06.577Z,1.80
2022-10-06T22:47:34.542Z,1.90
2022-10-06T22:50:01.057Z,1.90
2022-10-06T22:52:27.547Z,1.80
2022-10-06T22:54:54.034Z,2.53
2022-10-06T22:57:20.525Z,1.75
2022-10-06T22:59:47.019Z,1.60
2022-10-06T23:02:13.525Z,1.73
2022-10-06T23:04:41.394Z,1.92
2022-10-06T23:07:07.983Z,2.10
2022-10-06T23:09:34.500Z,2.35
2022-10-06T23:12:01.116Z,2.27
2022-10-06T23:14:27.600Z,2.30
2022-10-06T23:16:54.151Z,1.50
2022-10-06T23:19:20.665Z,1.88
2022-10-06T23:21:48.512Z,1.75
2022-10-06T23:24:15.100Z,2.30
2022-10-06T23:26:41.752Z,1.65
2022-10-06T23:29:11.831Z,1.67
2022-10-06T23:31:38.375Z,2.65
2022-10-06T23:34:04.948Z,2.15
2022-10-06T23:36:31.485Z,1.77
2022-10-06T23:38:59.520Z,1.80
2022-10-06T23:41:26.137Z,1.60
2022-10-06T23:43:52.627Z,1.30
2022-10-06T23:46:19.190Z,1.60
2022-10-06T23:48:45.821Z,1.67
2022-10-06T23:51:14.192Z,1.60
2022-10-06T23:53:41.240Z,1.70
2022-10-06T23:56:09.656Z,1.58
2022-10-06T23:58:36.614Z,1.65
